Time;durP1;ratioP1;P1;durP2;ratioP2;P2;SDS_P1;SDS_P2;PMS_P1;PMS_P2;Temp;Humidity;BMP_temperature;BMP_pressure;BME280_temperature;BME280_humidity;BME280_pressure;Samples;Min_cycle;Max_cycle;Signal;HPM_P1;HPM_P2
2024/01/11 00:00:45;;;;;;;22.73;8.77;;;-4.80;99.90;;;;;;5092852;28;20020;-75
2024/01/11 00:03:10;;;;;;;18.40;10.13;;;-4.80;99.90;;;;;;5093753;28;20027;-74
2024/01/11 00:05:36;;;;;;;15.73;7.57;;;-4.80;99.90;;;;;;5093703;28;20066;-75
2024/01/11 00:08:03;;;;;;;26.17;8.80;;;-4.80;99.90;;;;;;5093402;28;20080;-75
2024/01/11 00:10:28;;;;;;;21.42;7.68;;;-4.80;99.90;;;;;;5092466;28;20444;-75
2024/01/11 00:12:54;;;;;;;16.75;9.32;;;-4.80;99.90;;;;;;5093377;28;20024;-75
2024/01/11 00:15:20;;;;;;;14.68;8.48;;;-4.80;99.90;;;;;;5093599;28;20150;-75
2024/01/11 00:17:45;;;;;;;19.73;7.70;;;-4.80;99.90;;;;;;5093152;28;20016;-75
2024/01/11 00:20:11;;;;;;;22.50;9.18;;;-4.90;99.90;;;;;;5093893;28;20077;-75
2024/01/11 00:22:37;;;;;;;17.38;8.70;;;-4.80;99.90;;;;;;5091974;28;20054;-75
2024/01/11 00:25:04;;;;;;;21.88;9.70;;;-4.90;99.90;;;;;;5092237;28;20438;-75
2024/01/11 00:27:29;;;;;;;18.80;7.95;;;-4.90;99.90;;;;;;5091853;28;20082;-75
2024/01/11 00:29:55;;;;;;;21.65;8.25;;;-5.00;99.90;;;;;;5091802;28;20032;-75
2024/01/11 00:32:23;;;;;;;25.60;8.05;;;-5.00;99.90;;;;;;5093028;28;20506;-74
2024/01/11 00:34:49;;;;;;;20.20;8.13;;;-5.00;99.90;;;;;;5093658;28;20489;-75
2024/01/11 00:37:15;;;;;;;20.27;9.07;;;-5.00;99.90;;;;;;5093422;28;20020;-76
2024/01/11 00:39:41;;;;;;;30.83;9.35;;;-5.10;99.90;;;;;;5091442;28;20418;-75
2024/01/11 00:42:06;;;;;;;18.60;7.55;;;-5.10;99.90;;;;;;5093223;28;20032;-76
2024/01/11 00:44:32;;;;;;;19.92;8.50;;;-5.00;99.90;;;;;;5091932;28;20032;-76
2024/01/11 00:46:58;;;;;;;17.33;8.00;;;-5.10;99.90;;;;;;5091635;28;20025;-75
2024/01/11 00:49:24;;;;;;;13.15;7.05;;;-5.00;99.90;;;;;;5092562;28;20027;-75
2024/01/11 00:51:49;;;;;;;22.05;10.00;;;-5.10;99.90;;;;;;5091404;28;20023;-75
2024/01/11 00:54:15;;;;;;;20.92;8.38;;;-5.00;99.90;;;;;;5091256;28;20048;-75
2024/01/11 00:56:40;;;;;;;24.10;9.73;;;-5.00;99.90;;;;;;5092689;28;20024;-76
2024/01/11 00:59:06;;;;;;;17.27;7.93;;;-5.00;99.90;;;;;;5091416;28;20020;-75
2024/01/11 01:01:32;;;;;;;19.27;8.20;;;-5.00;99.90;;;;;;5092524;28;20036;-75
2024/01/11 01:03:58;;;;;;;18.27;7.55;;;-5.00;99.90;;;;;;5092590;28;20367;-75
2024/01/11 01:06:24;;;;;;;21.75;7.88;;;-5.00;99.90;;;;;;5092866;28;20073;-75
2024/01/11 01:08:49;;;;;;;23.23;8.52;;;-5.00;99.90;;;;;;5092311;28;20020;-75
2024/01/11 01:11:15;;;;;;;14.40;7.53;;;-5.00;99.90;;;;;;5090950;28;20031;-76
2024/01/11 01:13:40;;;;;;;19.98;7.32;;;-5.00;99.90;;;;;;5092812;28;20016;-75
2024/01/11 01:16:06;;;;;;;18.13;8.07;;;-5.10;99.90;;;;;;5092806;28;20022;-75
2024/01/11 01:18:32;;;;;;;21.27;8.77;;;-5.10;99.90;;;;;;5091791;28;20099;-76
2024/01/11 01:20:57;;;;;;;20.23;8.38;;;-5.10;99.90;;;;;;5092487;28;20020;-74
2024/01/11 01:23:23;;;;;;;23.25;8.60;;;-5.10;99.90;;;;;;5091120;28;20028;-76
2024/01/11 01:25:49;;;;;;;26.48;9.38;;;-5.10;99.90;;;;;;5092320;28;20035;-75
2024/01/11 01:28:14;;;;;;;22.58;8.75;;;-5.10;99.90;;;;;;5090813;28;20059;-75
2024/01/11 01:30:40;;;;;;;17.77;7.45;;;-5.10;99.90;;;;;;5092422;28;20505;-75
2024/01/11 01:33:06;;;;;;;18.75;8.40;;;-5.10;99.90;;;;;;5091099;28;20418;-74
2024/01/11 01:35:33;;;;;;;17.85;8.90;;;-5.20;99.90;;;;;;5092488;28;20027;-75
2024/01/11 01:37:58;;;;;;;25.88;9.00;;;-5.20;99.90;;;;;;5090829;28;20101;-75
2024/01/11 01:40:24;;;;;;;21.13;8.50;;;-5.20;99.90;;;;;;5092398;28;20044;-75
2024/01/11 01:42:50;;;;;;;19.27;7.93;;;-5.30;99.90;;;;;;5092070;28;20091;-75
2024/01/11 01:45:16;;;;;;;21.42;8.57;;;-5.30;99.90;;;;;;5090821;28;20401;-75
2024/01/11 01:47:43;;;;;;;20.95;9.25;;;-5.40;99.90;;;;;;5092229;28;20099;-75
2024/01/11 01:50:11;;;;;;;17.67;7.60;;;-5.10;99.90;;;;;;5092200;28;20074;-75
2024/01/11 01:52:39;;;;;;;21.80;9.20;;;-5.40;99.90;;;;;;5090709;28;20052;-75
2024/01/11 01:55:06;;;;;;;20.35;8.50;;;-5.40;99.90;;;;;;5092298;28;20024;-75
2024/01/11 01:57:34;;;;;;;11.13;6.85;;;-5.40;99.90;;;;;;5092112;28;20044;-75
2024/01/11 02:00:01;;;;;;;21.20;9.38;;;-5.50;99.90;;;;;;5090484;28;20016;-75
2024/01/11 02:02:28;;;;;;;16.48;7.70;;;-5.40;99.90;;;;;;5092256;28;20032;-75
2024/01/11 02:04:54;;;;;;;15.00;7.78;;;-5.50;99.90;;;;;;5092414;28;20045;-75
2024/01/11 02:07:20;;;;;;;28.00;10.95;;;-5.50;99.90;;;;;;5092199;28;20451;-75
2024/01/11 02:09:47;;;;;;;25.45;8.30;;;-5.60;99.90;;;;;;5092035;28;20024;-75
2024/01/11 02:12:14;;;;;;;17.88;9.13;;;-5.60;99.90;;;;;;5090835;28;20094;-75
2024/01/11 02:14:40;;;;;;;15.90;8.40;;;-5.70;99.90;;;;;;5090989;28;20123;-75
2024/01/11 02:17:06;;;;;;;16.95;7.97;;;-5.70;99.90;;;;;;5092190;28;20024;-75
2024/01/11 02:19:33;;;;;;;15.93;8.55;;;-5.70;99.90;;;;;;5092344;28;20024;-75
2024/01/11 02:22:04;;;;;;;20.95;8.50;;;-5.70;99.90;;;;;;5092057;28;20020;-75
2024/01/11 02:24:29;;;;;;;22.65;8.75;;;-5.70;99.90;;;;;;5090500;28;20486;-75
2024/01/11 02:27:02;;;;;;;20.27;8.85;;;-5.70;99.90;;;;;;5090328;28;20028;-75
2024/01/11 02:29:29;;;;;;;20.45;8.52;;;-5.70;99.90;;;;;;5091659;28;20043;-75
2024/01/11 02:31:59;;;;;;;20.60;8.48;;;-5.70;99.90;;;;;;5095648;28;20216;-76
2024/01/11 02:34:27;;;;;;;16.45;7.85;;;-5.70;99.90;;;;;;5095819;28;20096;-75
2024/01/11 02:36:53;;;;;;;21.85;9.55;;;-5.80;99.90;;;;;;5094357;28;20111;-75
2024/01/11 02:39:21;;;;;;;19.98;9.07;;;-5.80;99.90;;;;;;5095204;28;20114;-75
2024/01/11 02:41:47;;;;;;;14.05;7.40;;;-5.80;99.90;;;;;;5095509;28;20099;-76
2024/01/11 02:44:13;;;;;;;17.65;7.35;;;-5.80;99.90;;;;;;5095736;28;20024;-75
2024/01/11 02:46:39;;;;;;;21.90;7.68;;;-5.90;99.90;;;;;;5094409;28;20513;-75
2024/01/11 02:49:04;;;;;;;18.80;8.27;;;-5.90;99.90;;;;;;5095037;28;20020;-75
2024/01/11 02:51:30;;;;;;;19.35;7.50;;;-5.90;99.90;;;;;;5093841;28;20028;-75
2024/01/11 02:53:55;;;;;;;24.23;8.90;;;-5.90;99.90;;;;;;5095033;28;20024;-75
2024/01/11 02:56:21;;;;;;;18.95;9.23;;;-5.80;99.90;;;;;;5094717;28;20031;-74
2024/01/11 02:58:47;;;;;;;20.50;8.73;;;-5.90;99.90;;;;;;5093176;28;20501;-75
2024/01/11 03:01:12;;;;;;;17.38;7.43;;;-6.00;99.90;;;;;;5094654;28;20024;-75
2024/01/11 03:03:38;;;;;;;21.73;9.05;;;-6.00;99.90;;;;;;5093823;28;20028;-75
2024/01/11 03:06:04;;;;;;;20.48;9.02;;;-6.00;99.90;;;;;;5095277;28;20035;-75
2024/01/11 03:08:29;;;;;;;22.23;8.77;;;-5.90;99.90;;;;;;5094967;28;20081;-75
2024/01/11 03:10:55;;;;;;;20.58;8.27;;;-5.90;99.90;;;;;;5094881;28;20428;-74
2024/01/11 03:13:21;;;;;;;25.13;9.75;;;-5.80;99.90;;;;;;5093485;28;20107;-75
2024/01/11 03:15:46;;;;;;;17.35;9.80;;;-5.80;99.90;;;;;;5093689;28;20477;-75
2024/01/11 03:18:12;;;;;;;16.35;9.13;;;-5.80;99.90;;;;;;5094442;28;20031;-75
2024/01/11 03:20:38;;;;;;;21.40;9.85;;;-5.40;99.90;;;;;;5095016;28;20016;-75
2024/01/11 03:23:03;;;;;;;19.73;8.27;;;-5.80;99.90;;;;;;5093765;28;20089;-75
2024/01/11 03:25:30;;;;;;;22.65;7.85;;;-5.80;99.90;;;;;;5095067;28;20067;-75
2024/01/11 03:27:55;;;;;;;24.25;8.25;;;-5.90;99.90;;;;;;5094711;28;20052;-75
2024/01/11 03:30:21;;;;;;;20.30;10.32;;;-5.90;99.90;;;;;;5094921;28;20074;-75
2024/01/11 03:32:47;;;;;;;22.08;8.85;;;-5.90;99.90;;;;;;5094558;28;20476;-75
2024/01/11 03:35:12;;;;;;;19.33;8.30;;;-6.00;99.90;;;;;;5094444;28;20025;-75
2024/01/11 03:37:38;;;;;;;16.95;8.15;;;-6.10;99.90;;;;;;5094446;28;20466;-75
2024/01/11 03:40:04;;;;;;;22.65;8.77;;;-6.20;99.90;;;;;;5094045;28;20016;-75
2024/01/11 03:42:30;;;;;;;21.88;8.85;;;-6.20;99.90;;;;;;5093224;28;20564;-75
2024/01/11 03:44:56;;;;;;;26.52;9.82;;;-6.20;99.90;;;;;;5093518;28;20032;-74
2024/01/11 03:47:21;;;;;;;24.13;8.20;;;-6.20;99.90;;;;;;5094425;28;20110;-75
2024/01/11 03:49:47;;;;;;;19.77;8.15;;;-6.20;99.90;;;;;;5094197;28;20023;-75
2024/01/11 03:52:13;;;;;;;19.17;7.65;;;-6.20;99.90;;;;;;5093950;28;20024;-75
2024/01/11 03:54:38;;;;;;;21.90;8.80;;;-6.20;99.90;;;;;;5092820;28;20073;-74
2024/01/11 03:57:04;;;;;;;16.05;7.68;;;-6.30;99.90;;;;;;5092936;28;20120;-75
2024/01/11 03:59:30;;;;;;;21.67;7.53;;;-6.30;99.90;;;;;;5093861;28;20421;-74
2024/01/11 04:01:56;;;;;;;17.77;7.50;;;-6.30;99.90;;;;;;5092691;28;20077;-75
2024/01/11 04:04:22;;;;;;;23.42;8.77;;;-6.40;99.90;;;;;;5093935;28;20054;-74
2024/01/11 04:06:49;;;;;;;18.48;7.70;;;-6.40;99.90;;;;;;5093798;28;20565;-75
2024/01/11 04:09:15;;;;;;;18.25;7.38;;;-6.50;99.90;;;;;;5092321;28;20113;-75
2024/01/11 04:11:40;;;;;;;21.13;8.38;;;-6.50;99.90;;;;;;5092572;28;20124;-75
2024/01/11 04:14:06;;;;;;;21.50;8.80;;;-6.50;99.90;;;;;;5092470;28;20032;-74
2024/01/11 04:16:32;;;;;;;20.52;8.75;;;-6.50;99.90;;;;;;5094273;28;20016;-75
2024/01/11 04:18:57;;;;;;;13.00;7.30;;;-6.40;99.90;;;;;;5092277;28;20083;-75
2024/01/11 04:21:28;;;;;;;17.95;7.88;;;-6.50;99.90;;;;;;5093560;28;20060;-75
2024/01/11 04:23:53;;;;;;;18.70;7.88;;;-6.50;99.90;;;;;;5092276;28;20024;-75
2024/01/11 04:26:19;;;;;;;15.38;7.75;;;-6.60;99.90;;;;;;5092174;28;20027;-75
2024/01/11 04:28:46;;;;;;;18.38;7.97;;;-6.60;99.90;;;;;;5092104;28;20031;-75
2024/01/11 04:31:12;;;;;;;29.73;8.88;;;-6.60;99.90;;;;;;5091742;28;20396;-75
2024/01/11 04:33:44;;;;;;;16.45;9.25;;;-6.60;99.90;;;;;;5093559;28;20032;-75
2024/01/11 04:36:10;;;;;;;20.85;9.20;;;-6.60;99.90;;;;;;5093443;28;20371;-75
2024/01/11 04:38:37;;;;;;;19.42;7.78;;;-6.60;99.90;;;;;;5093020;28;20051;-76
2024/01/11 04:41:07;;;;;;;17.92;7.82;;;-6.70;99.90;;;;;;5093483;28;20016;-75
2024/01/11 04:43:33;;;;;;;22.48;9.07;;;-6.70;99.90;;;;;;5093892;28;20020;-75
2024/01/11 04:45:58;;;;;;;18.52;8.57;;;-6.70;99.90;;;;;;5093164;28;20024;-75
2024/01/11 04:48:24;;;;;;;24.88;8.82;;;-6.70;99.90;;;;;;5092997;28;20047;-75
2024/01/11 04:50:50;;;;;;;17.13;9.00;;;-6.70;99.90;;;;;;5092801;28;20017;-75
2024/01/11 04:53:15;;;;;;;21.77;8.63;;;-6.80;99.90;;;;;;5091028;28;20113;-75
2024/01/11 04:55:41;;;;;;;22.27;9.52;;;-6.80;99.90;;;;;;5093013;28;20066;-74
2024/01/11 04:58:06;;;;;;;25.60;9.77;;;-6.70;99.90;;;;;;5092629;28;20024;-75
2024/01/11 05:00:32;;;;;;;27.58;10.80;;;-6.60;99.90;;;;;;5092900;28;20028;-75
2024/01/11 05:02:58;;;;;;;19.15;9.55;;;-6.70;99.90;;;;;;5092732;28;20035;-75
2024/01/11 05:05:23;;;;;;;23.48;8.85;;;-6.70;99.90;;;;;;5092848;28;20032;-75
2024/01/11 05:07:49;;;;;;;22.88;7.80;;;-6.80;99.90;;;;;;5091360;28;20375;-76
2024/01/11 05:10:14;;;;;;;18.02;7.25;;;-6.80;99.90;;;;;;5092657;28;20035;-75
2024/01/11 05:12:40;;;;;;;26.98;9.55;;;-6.80;99.90;;;;;;5092468;28;20056;-75
2024/01/11 05:15:08;;;;;;;16.77;8.68;;;-6.90;99.90;;;;;;5097199;28;20028;-75
2024/01/11 05:17:33;;;;;;;21.17;7.95;;;-6.90;99.90;;;;;;5094567;28;20497;-75
2024/01/11 05:19:59;;;;;;;21.83;8.32;;;-6.80;99.90;;;;;;5093353;28;20024;-74
2024/01/11 05:22:24;;;;;;;19.60;9.07;;;-6.80;99.90;;;;;;5092613;28;20035;-75
2024/01/11 05:24:50;;;;;;;21.48;9.23;;;-6.80;99.90;;;;;;5093360;28;20024;-75
2024/01/11 05:27:16;;;;;;;28.42;9.85;;;-6.80;99.90;;;;;;5092130;28;20050;-75
2024/01/11 05:29:41;;;;;;;26.38;10.48;;;-6.90;99.90;;;;;;5092853;28;20402;-74
2024/01/11 05:32:07;;;;;;;17.95;9.30;;;-6.90;99.90;;;;;;5091172;28;20075;-75
2024/01/11 05:34:33;;;;;;;27.67;9.35;;;-6.80;99.90;;;;;;5092810;28;20110;-75
2024/01/11 05:36:58;;;;;;;23.65;10.10;;;-6.90;99.90;;;;;;5091210;28;20024;-75
2024/01/11 05:39:24;;;;;;;25.23;11.02;;;-7.00;99.90;;;;;;5091000;28;20402;-75
2024/01/11 05:41:50;;;;;;;24.50;11.63;;;-7.00;99.90;;;;;;5092441;28;20063;-74
2024/01/11 05:44:15;;;;;;;26.15;13.10;;;-6.90;99.90;;;;;;5092357;28;20042;-75
2024/01/11 05:46:41;;;;;;;23.42;11.02;;;-6.80;99.90;;;;;;5090931;28;20032;-75
2024/01/11 05:49:07;;;;;;;23.90;9.60;;;-6.90;99.90;;;;;;5090732;28;20026;-76
2024/01/11 05:51:33;;;;;;;23.70;9.55;;;-7.00;99.90;;;;;;5092224;28;20084;-75
2024/01/11 05:53:58;;;;;;;22.65;9.05;;;-7.00;99.90;;;;;;5092428;28;20020;-74
2024/01/11 05:56:24;;;;;;;24.25;8.48;;;-6.90;99.90;;;;;;5092868;28;20390;-75
2024/01/11 05:58:49;;;;;;;23.40;9.07;;;-6.90;99.90;;;;;;5090704;28;20077;-75
2024/01/11 06:01:16;;;;;;;21.23;9.35;;;-6.90;99.90;;;;;;5092080;28;20031;-75
2024/01/11 06:03:42;;;;;;;22.02;10.82;;;-6.80;99.90;;;;;;5091743;28;20105;-75
2024/01/11 06:06:08;;;;;;;26.65;10.00;;;-6.90;99.90;;;;;;5096471;28;20028;-75
2024/01/11 06:08:33;;;;;;;28.58;8.77;;;-6.80;99.90;;;;;;5095646;28;20016;-75
2024/01/11 06:10:59;;;;;;;29.55;9.73;;;-6.90;99.90;;;;;;5096020;28;20024;-76
2024/01/11 06:13:25;;;;;;;19.17;8.70;;;-6.90;99.90;;;;;;5095924;28;20444;-75
2024/01/11 06:15:51;;;;;;;42.78;14.52;;;-6.90;99.90;;;;;;5094726;28;20028;-75
2024/01/11 06:18:17;;;;;;;33.63;11.80;;;-6.90;99.90;;;;;;5095646;28;20145;-75
2024/01/11 06:20:42;;;;;;;34.58;13.60;;;-7.00;99.90;;;;;;5095859;28;20012;-75
2024/01/11 06:23:08;;;;;;;25.17;11.32;;;-7.00;99.90;;;;;;5095885;28;20028;-74
2024/01/11 06:25:34;;;;;;;30.15;10.35;;;-7.00;99.90;;;;;;5095941;28;20081;-76
2024/01/11 06:27:59;;;;;;;22.80;10.30;;;-7.00;99.90;;;;;;5095586;28;20438;-75
2024/01/11 06:30:25;;;;;;;22.25;10.05;;;-7.10;99.90;;;;;;5094393;28;20036;-76
2024/01/11 06:32:51;;;;;;;21.75;11.05;;;-7.10;99.90;;;;;;5096320;28;20107;-75
2024/01/11 06:35:16;;;;;;;19.20;10.02;;;-5.30;99.90;;;;;;5094394;28;20024;-74
2024/01/11 06:37:42;;;;;;;22.85;11.30;;;-6.00;99.90;;;;;;5094079;28;20028;-74
2024/01/11 06:40:08;;;;;;;20.38;8.95;;;-6.40;99.90;;;;;;5095582;28;20067;-75
2024/01/11 06:42:34;;;;;;;24.10;10.25;;;-6.70;99.90;;;;;;5094170;28;20455;-75
2024/01/11 06:45:00;;;;;;;22.45;9.88;;;-6.90;99.90;;;;;;5094322;28;20542;-75
2024/01/11 06:47:25;;;;;;;24.45;10.15;;;-6.90;99.90;;;;;;5094455;28;20028;-75
2024/01/11 06:49:51;;;;;;;21.05;9.02;;;-7.00;99.90;;;;;;5095317;28;20028;-75
2024/01/11 06:52:17;;;;;;;18.38;8.70;;;-7.10;99.90;;;;;;5093927;28;20034;-75
2024/01/11 06:54:42;;;;;;;17.52;9.00;;;-7.10;99.90;;;;;;5095288;28;20482;-75
2024/01/11 06:57:08;;;;;;;24.17;9.80;;;-7.10;99.90;;;;;;5095303;28;20390;-75
2024/01/11 06:59:34;;;;;;;19.83;9.07;;;-7.00;99.90;;;;;;5095119;28;20489;-76
2024/01/11 07:01:59;;;;;;;17.85;8.00;;;-7.00;99.90;;;;;;5093909;28;20039;-75
2024/01/11 07:04:25;;;;;;;25.00;9.00;;;-7.00;99.90;;;;;;5094712;28;20542;-75
2024/01/11 07:06:51;;;;;;;23.95;9.52;;;-7.00;99.90;;;;;;5095276;28;20039;-74
2024/01/11 07:09:16;;;;;;;22.17;10.02;;;-6.90;99.90;;;;;;5094775;28;20074;-76
2024/01/11 07:11:44;;;;;;;27.33;10.15;;;-6.90;99.90;;;;;;5095227;28;20043;-75
2024/01/11 07:14:09;;;;;;;19.98;10.20;;;-6.80;99.90;;;;;;5094048;28;20078;-75
2024/01/11 07:16:35;;;;;;;19.58;9.85;;;-6.80;99.90;;;;;;5093472;28;20028;-74
2024/01/11 07:19:01;;;;;;;20.23;9.55;;;-6.80;99.90;;;;;;5093181;28;20074;-75
2024/01/11 07:21:31;;;;;;;26.65;10.23;;;-6.80;99.90;;;;;;5093446;28;20020;-76
2024/01/11 07:23:57;;;;;;;24.67;11.07;;;-6.80;99.90;;;;;;5094919;28;20073;-76
2024/01/11 07:26:24;;;;;;;29.33;10.77;;;-6.70;99.90;;;;;;5095429;28;20026;-76
2024/01/11 07:28:50;;;;;;;17.13;8.77;;;-6.60;99.90;;;;;;5093771;28;20032;-75
2024/01/11 07:31:16;;;;;;;15.63;9.07;;;-6.50;99.90;;;;;;5094545;28;20020;-76
2024/01/11 07:33:42;;;;;;;23.80;10.40;;;-6.40;99.90;;;;;;5095193;28;20073;-75
2024/01/11 07:36:09;;;;;;;24.58;9.75;;;-6.30;99.90;;;;;;5093955;28;20024;-78
2024/01/11 07:38:35;;;;;;;24.80;9.25;;;-6.20;99.90;;;;;;5093785;28;20017;-76
2024/01/11 07:41:01;;;;;;;18.40;8.63;;;-6.10;99.90;;;;;;5094996;28;20108;-75
2024/01/11 07:43:28;;;;;;;26.70;11.40;;;-6.10;99.90;;;;;;5093148;28;20050;-76
2024/01/11 07:45:56;;;;;;;27.90;12.43;;;-6.10;99.90;;;;;;5094520;28;20389;-75
2024/01/11 07:48:22;;;;;;;19.02;10.48;;;-6.00;99.90;;;;;;5095160;28;20023;-75
2024/01/11 07:50:48;;;;;;;24.35;11.38;;;-6.00;99.90;;;;;;5095194;28;20024;-75
2024/01/11 07:53:14;;;;;;;22.00;10.88;;;-6.00;99.90;;;;;;5092994;28;20482;-79
2024/01/11 07:55:40;;;;;;;27.45;12.30;;;-5.90;99.90;;;;;;5097196;28;20027;-77
2024/01/11 07:58:06;;;;;;;29.23;14.27;;;-0.40;99.90;;;;;;5094863;28;20024;-78
2024/01/11 08:00:32;;;;;;;33.60;13.25;;;-1.20;99.90;;;;;;5095324;28;20165;-78
2024/01/11 08:02:58;;;;;;;28.65;13.13;;;-2.10;99.90;;;;;;5095982;28;20020;-78
2024/01/11 08:05:25;;;;;;;21.00;11.05;;;-2.70;99.90;;;;;;5096185;28;20023;-79
2024/01/11 08:07:50;;;;;;;24.92;10.63;;;-3.30;99.90;;;;;;5096759;28;20020;-77
2024/01/11 08:10:16;;;;;;;24.48;12.23;;;-3.70;99.90;;;;;;5096104;28;20119;-79
2024/01/11 08:12:41;;;;;;;21.95;10.65;;;-4.10;99.90;;;;;;5093783;28;20036;-76
2024/01/11 08:15:12;;;;;;;20.70;9.93;;;-3.90;99.90;;;;;;5091915;28;20034;-76
2024/01/11 08:17:39;;;;;;;37.05;10.60;;;-4.20;99.90;;;;;;5093331;28;20125;-76
2024/01/11 08:20:07;;;;;;;23.15;10.85;;;-4.40;99.90;;;;;;5092515;28;20085;-76
2024/01/11 08:24:58;;;;;;;21.98;11.57;;;-4.50;99.90;;;;;;5086437;22;20059;-75
2024/01/11 08:27:24;;;;;;;24.20;11.05;;;-4.60;99.90;;;;;;5072316;28;20028;-73
2024/01/11 08:29:50;;;;;;;24.55;11.07;;;-4.60;99.90;;;;;;5072637;28;20021;-75
2024/01/11 08:32:16;;;;;;;24.00;9.60;;;-4.60;99.90;;;;;;5072509;28;20032;-75
2024/01/11 08:34:42;;;;;;;25.23;11.38;;;-4.60;99.90;;;;;;5072053;28;20029;-75
2024/01/11 08:37:08;;;;;;;31.98;11.70;;;-4.60;99.90;;;;;;5072713;28;20027;-74
2024/01/11 08:39:33;;;;;;;29.80;11.57;;;-4.60;99.90;;;;;;5072143;28;20032;-76
2024/01/11 08:41:59;;;;;;;21.63;8.88;;;-4.40;99.90;;;;;;5054585;28;20055;-74
2024/01/11 08:44:25;;;;;;;36.17;12.15;;;-4.40;99.90;;;;;;5072436;28;20536;-74
2024/01/11 08:46:50;;;;;;;25.50;11.60;;;-4.30;99.90;;;;;;5072574;28;20025;-74
2024/01/11 08:49:16;;;;;;;27.20;12.93;;;-4.30;99.90;;;;;;5072165;28;20036;-75
2024/01/11 08:51:41;;;;;;;20.98;10.15;;;-4.20;99.90;;;;;;5072416;28;20027;-74
2024/01/11 08:54:09;;;;;;;22.23;9.75;;;-4.20;99.90;;;;;;5071991;28;20093;-76
2024/01/11 08:56:35;;;;;;;27.98;13.40;;;-4.10;99.90;;;;;;5072222;28;20444;-74
2024/01/11 08:59:01;;;;;;;33.88;13.45;;;-4.00;99.90;;;;;;5054097;28;20046;-75
2024/01/11 09:01:27;;;;;;;20.65;9.75;;;-3.90;99.90;;;;;;5072296;28;20077;-75
2024/01/11 09:03:53;;;;;;;21.58;9.77;;;-3.90;99.90;;;;;;5072043;28;20020;-74
2024/01/11 09:06:18;;;;;;;18.73;8.90;;;-3.70;99.90;;;;;;5072274;28;20035;-74
2024/01/11 09:08:44;;;;;;;19.15;9.95;;;-3.60;99.90;;;;;;5053985;28;20027;-74
2024/01/11 09:11:10;;;;;;;16.15;9.40;;;-3.50;99.90;;;;;;5054225;28;20029;-74
2024/01/11 09:13:36;;;;;;;24.70;9.60;;;-3.40;99.90;;;;;;5072545;28;20024;-74
2024/01/11 09:16:02;;;;;;;26.38;10.45;;;-3.30;99.90;;;;;;5072357;28;20017;-75
2024/01/11 09:18:27;;;;;;;24.17;9.50;;;-3.30;99.90;;;;;;5072649;28;20028;-74
2024/01/11 09:20:53;;;;;;;20.85;9.02;;;-3.20;99.90;;;;;;5073229;28;20020;-73
2024/01/11 09:23:18;;;;;;;20.10;8.57;;;-3.20;99.90;;;;;;5055932;28;20033;-76
2024/01/11 09:25:44;;;;;;;18.15;7.70;;;-3.10;99.90;;;;;;5075692;28;20470;-77
2024/01/11 09:28:10;;;;;;;21.30;9.77;;;-3.00;99.90;;;;;;5065327;28;20088;-75
2024/01/11 09:30:36;;;;;;;20.30;10.10;;;-2.90;99.90;;;;;;5088979;28;20029;-78
2024/01/11 09:33:01;;;;;;;16.42;7.93;;;-2.80;99.90;;;;;;5074050;28;20058;-80
2024/01/11 09:35:27;;;;;;;14.27;7.80;;;-2.70;99.90;;;;;;5059403;28;20024;-77
2024/01/11 09:37:53;;;;;;;20.08;8.63;;;-2.70;99.90;;;;;;5071996;28;20017;-77
2024/01/11 09:40:19;;;;;;;15.77;8.52;;;-2.50;99.90;;;;;;5073874;28;20099;-76
2024/01/11 09:42:45;;;;;;;19.42;7.18;;;-2.50;99.90;;;;;;5072947;28;20107;-77
2024/01/11 09:45:15;;;;;;;16.85;8.13;;;-2.40;99.90;;;;;;5072879;28;20031;-78
2024/01/11 09:47:42;;;;;;;14.45;8.93;;;-2.30;99.90;;;;;;5072591;28;20031;-76
2024/01/11 09:50:08;;;;;;;15.27;8.18;;;-2.30;99.90;;;;;;5072332;28;20160;-79
2024/01/11 09:52:33;;;;;;;17.17;8.48;;;-2.10;99.90;;;;;;5073807;28;20029;-75
2024/01/11 09:55:00;;;;;;;23.92;8.35;;;-2.00;99.90;;;;;;5071719;28;20016;-76
2024/01/11 09:57:30;;;;;;;19.27;8.27;;;-1.80;99.90;;;;;;5071624;28;20029;-75
2024/01/11 09:59:57;;;;;;;19.48;7.90;;;-1.80;99.90;;;;;;5053482;28;20027;-76
2024/01/11 10:02:26;;;;;;;18.00;8.27;;;-1.70;99.90;;;;;;5053656;28;20032;-77
2024/01/11 10:04:52;;;;;;;19.08;9.05;;;-1.60;99.90;;;;;;5053256;28;20125;-75
2024/01/11 10:07:21;;;;;;;15.98;8.05;;;-1.60;99.90;;;;;;5053640;28;20052;-77
2024/01/11 10:09:47;;;;;;;19.75;8.10;;;-1.50;99.90;;;;;;5070981;28;20093;-77
2024/01/11 10:12:13;;;;;;;15.95;8.00;;;-1.40;99.90;;;;;;5053556;28;20051;-76
2024/01/11 10:14:39;;;;;;;17.58;7.97;;;-1.30;99.90;;;;;;5054465;28;20070;-76
2024/01/11 10:17:05;;;;;;;19.15;8.75;;;-1.20;99.90;;;;;;5071205;28;20024;-77
2024/01/11 10:19:31;;;;;;;19.83;7.65;;;-1.10;99.90;;;;;;5053068;28;20552;-76
2024/01/11 10:21:58;;;;;;;17.23;8.00;;;-1.10;99.90;;;;;;5071604;28;20028;-76
2024/01/11 10:24:26;;;;;;;16.02;9.23;;;-1.10;99.90;;;;;;5053314;28;20082;-75
2024/01/11 10:26:55;;;;;;;16.08;7.20;;;-1.00;99.90;;;;;;5071517;28;20028;-77
2024/01/11 10:29:21;;;;;;;17.52;7.75;;;-1.10;99.90;;;;;;5071195;28;20024;-76
2024/01/11 10:31:47;;;;;;;19.00;7.75;;;-1.00;99.90;;;;;;5053345;28;20024;-76
2024/01/11 10:34:13;;;;;;;16.05;7.63;;;-0.80;99.90;;;;;;5071661;28;20027;-76
2024/01/11 10:36:40;;;;;;;17.92;6.07;;;-0.70;99.90;;;;;;5071268;28;20056;-75
2024/01/11 10:39:07;;;;;;;17.02;6.47;;;-0.50;99.50;;;;;;5053810;28;20463;-76
2024/01/11 10:41:45;;;;;;;16.45;5.78;;;-0.50;99.00;;;;;;5053373;28;20033;-76
2024/01/11 10:44:19;;;;;;;13.82;5.53;;;-0.40;98.80;;;;;;5053349;28;20031;-76
2024/01/11 10:46:46;;;;;;;11.00;5.60;;;-0.30;97.90;;;;;;5071154;28;20020;-77
2024/01/11 10:49:15;;;;;;;12.88;6.78;;;-0.20;97.60;;;;;;5071074;28;20021;-76
2024/01/11 10:51:44;;;;;;;11.65;5.43;;;-0.10;97.20;;;;;;5073564;28;20017;-77
2024/01/11 10:54:11;;;;;;;12.65;6.10;;;0.00;97.30;;;;;;5058425;28;20021;-77
2024/01/11 10:56:39;;;;;;;14.63;6.45;;;0.10;96.30;;;;;;5075515;28;20111;-76
2024/01/11 10:59:05;;;;;;;15.15;6.38;;;0.10;95.90;;;;;;5075515;28;20021;-76
2024/01/11 11:01:31;;;;;;;13.07;6.80;;;0.20;95.70;;;;;;5075558;28;20028;-77
2024/01/11 11:03:57;;;;;;;8.07;5.07;;;0.40;95.20;;;;;;5078200;28;20070;-76
2024/01/11 11:06:24;;;;;;;6.65;4.30;;;0.50;99.00;;;;;;5059237;28;20437;-76
2024/01/11 11:08:51;;;;;;;6.43;4.45;;;0.70;95.30;;;;;;5062160;28;20403;-77
2024/01/11 11:11:18;;;;;;;13.48;4.82;;;0.70;93.60;;;;;;5053544;28;20102;-76
2024/01/11 11:13:47;;;;;;;13.15;5.53;;;0.80;93.10;;;;;;5054807;28;20196;-76
2024/01/11 11:16:15;;;;;;;11.30;5.22;;;0.90;93.00;;;;;;5058848;28;20023;-77
2024/01/11 11:18:41;;;;;;;14.32;5.95;;;0.90;92.90;;;;;;5074802;28;20032;-76
2024/01/11 11:21:11;;;;;;;14.40;5.15;;;1.00;93.70;;;;;;5057841;28;20025;-77
2024/01/11 11:23:37;;;;;;;8.50;5.63;;;0.90;94.80;;;;;;5075552;28;20028;-77
2024/01/11 11:26:08;;;;;;;13.82;6.15;;;1.00;94.80;;;;;;5075026;28;20029;-77
2024/01/11 11:28:34;;;;;;;14.40;7.03;;;0.80;95.50;;;;;;5057361;28;20099;-77
2024/01/11 11:31:02;;;;;;;11.48;5.68;;;0.90;95.80;;;;;;5057236;28;20417;-77
2024/01/11 11:33:30;;;;;;;9.30;5.25;;;0.70;94.70;;;;;;5056936;28;20033;-77
2024/01/11 11:35:59;;;;;;;13.27;6.22;;;0.90;95.60;;;;;;5057816;28;20093;-76
2024/01/11 11:38:29;;;;;;;17.15;8.70;;;1.10;96.10;;;;;;5074332;28;20390;-77
2024/01/11 11:40:57;;;;;;;16.05;8.68;;;1.20;95.80;;;;;;5074473;28;20052;-77
2024/01/11 11:43:23;;;;;;;12.90;7.15;;;1.30;96.00;;;;;;5074219;28;20100;-77
2024/01/11 11:45:50;;;;;;;10.52;6.07;;;1.40;95.20;;;;;;5074486;28;20398;-77
2024/01/11 11:48:32;;;;;;;10.20;5.78;;;1.40;94.90;;;;;;5056637;28;20039;-76
2024/01/11 11:51:16;;;;;;;12.50;6.28;;;1.40;94.80;;;;;;5055877;28;20394;-75
2024/01/11 11:53:42;;;;;;;21.88;8.38;;;1.40;93.90;;;;;;5073593;28;20460;-75
2024/01/11 11:56:10;;;;;;;16.95;7.43;;;1.40;94.40;;;;;;5056045;28;20025;-76
2024/01/11 11:58:36;;;;;;;13.73;7.18;;;1.40;94.30;;;;;;5073391;28;20016;-75
2024/01/11 12:01:04;;;;;;;15.52;7.38;;;1.50;94.00;;;;;;5073427;28;20138;-76
2024/01/11 12:03:37;;;;;;;17.30;7.65;;;1.50;94.00;;;;;;5055403;28;20028;-76
2024/01/11 12:06:08;;;;;;;18.55;9.55;;;1.70;93.80;;;;;;5073775;28;20435;-77
2024/01/11 12:08:34;;;;;;;13.73;7.22;;;1.80;94.00;;;;;;5055513;28;20445;-76
2024/01/11 12:11:00;;;;;;;13.68;6.32;;;2.10;93.90;;;;;;5055724;28;20028;-75
2024/01/11 12:13:26;;;;;;;18.25;8.23;;;1.90;94.00;;;;;;5073297;28;20025;-76
2024/01/11 12:15:51;;;;;;;13.38;7.22;;;1.80;94.50;;;;;;5055323;28;20571;-76
2024/01/11 12:18:17;;;;;;;15.23;8.07;;;1.70;94.90;;;;;;5072916;28;20031;-76
2024/01/11 12:20:43;;;;;;;18.70;8.80;;;1.70;94.70;;;;;;5055230;28;20021;-77
2024/01/11 12:23:09;;;;;;;13.23;7.20;;;1.70;94.40;;;;;;5054942;28;20028;-77
2024/01/11 12:25:36;;;;;;;13.38;7.40;;;1.80;94.10;;;;;;5055145;28;20040;-76
2024/01/11 12:28:01;;;;;;;15.20;7.68;;;1.70;94.20;;;;;;5054788;28;20086;-76
2024/01/11 12:30:29;;;;;;;17.23;7.95;;;1.80;94.40;;;;;;5072978;28;20445;-76
2024/01/11 12:32:56;;;;;;;18.40;8.82;;;1.90;95.10;;;;;;5072765;28;20029;-76